Time,TemperatureF,DewpointF,PressureIn,WindDirection,WindDirectionDegrees,WindSpeedMPH,WindSpeedGustMPH,Humidity,HourlyPrecipIn,Conditions,Clouds,dailyrainin,SoftwareType,DateUTC
2013-09-19 00:00:00,78.2,48.1,29.82,NW,315,3.4,3.4,34,-99.99,,,-99.99,tws,2013-09-19 07:00:00,
2013-09-19 00:10:00,78.2,48.0,29.82,WNW,292,2.6,3.0,34,-99.99,,,-99.99,tws,2013-09-19 07:10:00,
2013-09-19 00:20:00,78.1,48.3,29.81,WNW,292,2.6,3.2,34,-99.99,,,-99.99,tws,2013-09-19 07:20:00,
2013-09-19 00:30:00,77.9,48.4,29.81,NW,315,2.8,3.2,34,-99.99,,,-99.99,tws,2013-09-19 07:30:00,
2013-09-19 00:40:00,77.7,48.0,29.81,WNW,292,4.1,5.0,34,-99.99,,,-99.99,tws,2013-09-19 07:40:00,
2013-09-19 00:50:00,77.6,47.9,29.81,West,270,3.7,4.5,34,-99.99,,,-99.99,tws,2013-09-19 07:50:00,
2013-09-19 01:00:00,77.7,48.1,29.81,WNW,292,3.3,4.7,34,-99.99,,,-99.99,tws,2013-09-19 08:00:00,
2013-09-19 01:10:00,77.6,48.4,29.82,NW,315,3.4,4.5,35,-99.99,,,-99.99,tws,2013-09-19 08:10:00,
2013-09-19 01:20:00,77.4,48.3,29.81,NW,315,4.1,4.6,35,-99.99,,,-99.99,tws,2013-09-19 08:20:00,
2013-09-19 01:30:00,77.2,48.5,29.82,NW,315,4.6,5.3,35,-99.99,,,-99.99,tws,2013-09-19 08:30:00,
2013-09-19 01:40:00,77.0,48.4,29.82,NW,315,5.4,6.3,36,-99.99,,,-99.99,tws,2013-09-19 08:40:00,
2013-09-19 01:50:00,77.0,48.6,29.81,NW,315,5.4,5.7,36,-99.99,,,-99.99,tws,2013-09-19 08:50:00,
2013-09-19 02:00:00,77.1,48.3,29.81,NW,315,4.7,5.7,35,-99.99,,,-99.99,tws,2013-09-19 09:00:00,
2013-09-19 02:10:00,77.1,48.0,29.81,West,270,4.3,6.0,35,-99.99,,,-99.99,tws,2013-09-19 09:10:00,
2013-09-19 02:20:00,77.0,48.0,29.81,NW,315,2.9,3.9,35,-99.99,,,-99.99,tws,2013-09-19 09:20:00,
2013-09-19 02:40:00,76.6,47.2,29.81,NW,315,3.7,4.1,34,-99.99,,,-99.99,tws,2013-09-19 09:40:00,
2013-09-19 02:50:00,76.4,46.9,29.81,NW,315,3.3,4.4,34,-99.99,,,-99.99,tws,2013-09-19 09:50:00,
2013-09-19 03:00:00,76.2,46.4,29.81,NW,315,3.9,6.4,34,-99.99,,,-99.99,tws,2013-09-19 10:00:00,
2013-09-19 03:10:00,75.9,45.4,29.81,NW,315,5.0,6.1,33,-99.99,,,-99.99,tws,2013-09-19 10:10:00,
2013-09-19 03:20:00,75.8,44.6,29.81,West,270,4.1,4.9,32,-99.99,,,-99.99,tws,2013-09-19 10:20:00,
2013-09-19 03:30:00,75.7,43.8,29.81,NNW,337,3.5,4.0,31,-99.99,,,-99.99,tws,2013-09-19 10:30:00,
2013-09-19 03:40:00,75.4,44.7,29.80,WNW,292,3.5,4.3,33,-99.99,,,-99.99,tws,2013-09-19 10:40:00,
2013-09-19 03:50:00,75.0,45.2,29.81,WNW,292,2.5,3.2,34,-99.99,,,-99.99,tws,2013-09-19 10:50:00,
2013-09-19 04:00:00,74.5,45.4,29.81,WNW,292,2.2,2.9,34,-99.99,,,-99.99,tws,2013-09-19 11:00:00,
2013-09-19 04:10:00,74.0,45.7,29.81,NW,315,2.6,3.0,36,-99.99,,,-99.99,tws,2013-09-19 11:10:00,
2013-09-19 04:20:00,73.4,45.5,29.81,North,0,1.1,2.0,36,-99.99,,,-99.99,tws,2013-09-19 11:20:00,
2013-09-19 04:40:00,72.8,47.7,29.82,North,0,1.5,2.1,40,-99.99,,,-99.99,tws,2013-09-19 11:40:00,
2013-09-19 04:50:00,72.5,47.6,29.82,North,0,1.9,2.3,40,-99.99,,,-99.99,tws,2013-09-19 11:50:00,
2013-09-19 05:00:00,72.0,47.8,29.81,NNW,337,1.8,2.1,41,-99.99,,,-99.99,tws,2013-09-19 12:00:00,
2013-09-19 05:10:00,71.7,47.6,29.82,North,0,1.8,2.2,41,-99.99,,,-99.99,tws,2013-09-19 12:10:00,
2013-09-19 05:20:00,71.5,47.3,29.82,NNW,337,1.9,2.0,41,-99.99,,,-99.99,tws,2013-09-19 12:20:00,
2013-09-19 05:30:00,71.3,46.9,29.82,NW,315,2.0,2.2,41,-99.99,,,-99.99,tws,2013-09-19 12:30:00,
2013-09-19 05:40:00,71.2,47.5,29.83,NNW,337,2.8,3.3,42,-99.99,,,-99.99,tws,2013-09-19 12:40:00,
2013-09-19 05:50:00,71.0,47.2,29.83,North,0,2.4,2.7,42,-99.99,,,-99.99,tws,2013-09-19 12:50:00,
2013-09-19 06:00:00,70.9,46.7,29.84,North,0,2.2,2.8,41,-99.99,,,-99.99,tws,2013-09-19 13:00:00,
2013-09-19 06:10:00,70.8,46.4,29.84,NW,315,2.3,2.8,41,-99.99,,,-99.99,tws,2013-09-19 13:10:00,
2013-09-19 06:20:00,70.7,46.9,29.84,North,0,2.3,3.1,42,-99.99,,,-99.99,tws,2013-09-19 13:20:00,
2013-09-19 06:30:00,70.5,47.6,29.85,NNW,337,2.4,3.0,43,-99.99,,,-99.99,tws,2013-09-19 13:30:00,
2013-09-19 06:40:00,70.2,47.0,29.84,North,0,0.6,1.8,42,-99.99,,,-99.99,tws,2013-09-19 13:40:00,
2013-09-19 06:50:00,69.9,47.0,29.84,North,0,0.3,1.8,43,-99.99,,,-99.99,tws,2013-09-19 13:50:00,
2013-09-19 07:00:00,69.5,47.1,29.84,North,0,0.0,0.0,44,-99.99,,,-99.99,tws,2013-09-19 14:00:00,
2013-09-19 07:10:00,69.3,48.2,29.85,NNE,22,0.8,1.8,46,-99.99,,,-99.99,tws,2013-09-19 14:10:00,
2013-09-19 07:20:00,69.5,48.8,29.84,NE,45,1.0,1.5,47,-99.99,,,-99.99,tws,2013-09-19 14:20:00,
2013-09-19 07:30:00,69.9,49.5,29.85,North,0,1.4,1.8,47,-99.99,,,-99.99,tws,2013-09-19 14:30:00,
2013-09-19 07:40:00,70.4,49.9,29.86,NNW,337,1.8,2.1,47,-99.99,,,-99.99,tws,2013-09-19 14:40:00,
2013-09-19 07:50:00,71.0,50.3,29.87,North,0,2.0,2.2,47,-99.99,,,-99.99,tws,2013-09-19 14:50:00,
2013-09-19 08:00:00,71.9,50.9,29.86,North,0,2.5,2.9,47,-99.99,,,-99.99,tws,2013-09-19 15:00:00,
2013-09-19 08:20:00,74.4,52.5,29.86,ENE,67,2.1,2.9,45,-99.99,,,-99.99,tws,2013-09-19 15:20:00,
2013-09-19 08:30:00,75.8,53.0,29.87,East,90,1.8,2.2,44,-99.99,,,-99.99,tws,2013-09-19 15:30:00,
2013-09-19 08:40:00,77.2,53.4,29.87,NE,45,2.1,2.6,43,-99.99,,,-99.99,tws,2013-09-19 15:40:00,
2013-09-19 08:50:00,78.6,53.3,29.88,East,90,2.1,2.7,40,-99.99,,,-99.99,tws,2013-09-19 15:50:00,
2013-09-19 09:00:00,80.1,53.4,29.87,ESE,112,1.8,2.4,39,-99.99,,,-99.99,tws,2013-09-19 16:00:00,
2013-09-19 09:10:00,81.3,53.6,29.87,ESE,112,1.7,2.9,37,-99.99,,,-99.99,tws,2013-09-19 16:10:00,
2013-09-19 09:20:00,82.4,54.1,29.88,East,90,2.5,3.1,37,-99.99,,,-99.99,tws,2013-09-19 16:20:00,
2013-09-19 09:40:00,85.0,53.8,29.87,SE,135,2.3,3.7,33,-99.99,,,-99.99,tws,2013-09-19 16:40:00,
2013-09-19 09:50:00,86.3,53.4,29.88,NE,45,3.0,5.0,31,-99.99,,,-99.99,tws,2013-09-19 16:50:00,
2013-09-19 10:00:00,87.5,53.2,29.88,East,90,1.9,3.3,30,-99.99,,,-99.99,tws,2013-09-19 17:00:00,
2013-09-19 10:10:00,88.3,53.5,29.88,SSE,157,3.3,4.4,29,-99.99,,,-99.99,tws,2013-09-19 17:10:00,
2013-09-19 10:20:00,88.9,52.8,29.87,East,90,2.4,4.0,28,-99.99,,,-99.99,tws,2013-09-19 17:20:00,
2013-09-19 10:30:00,89.8,53.0,29.87,East,90,2.8,4.0,28,-99.99,,,-99.99,tws,2013-09-19 17:30:00,
2013-09-19 10:40:00,91.0,52.5,29.87,WSW,247,3.0,4.4,26,-99.99,,,-99.99,tws,2013-09-19 17:40:00,
2013-09-19 10:50:00,90.9,51.9,29.87,SE,135,2.7,3.5,25,-99.99,,,-99.99,tws,2013-09-19 17:50:00,
2013-09-19 11:00:00,90.6,52.6,29.87,NW,315,2.8,4.6,26,-99.99,,,-99.99,tws,2013-09-19 18:00:00,
2013-09-19 11:10:00,90.7,53.5,29.86,West,270,2.3,3.7,27,-99.99,,,-99.99,tws,2013-09-19 18:10:00,
2013-09-19 11:20:00,91.3,54.0,29.85,SE,135,2.4,4.7,27,-99.99,,,-99.99,tws,2013-09-19 18:20:00,
2013-09-19 11:30:00,91.9,53.5,29.85,SSE,157,3.6,5.5,26,-99.99,,,-99.99,tws,2013-09-19 18:30:00,
2013-09-19 11:40:00,92.3,53.8,29.84,ESE,112,3.4,5.3,26,-99.99,,,-99.99,tws,2013-09-19 18:40:00,
2013-09-19 11:50:00,93.2,53.9,29.84,East,90,3.7,4.9,25,-99.99,,,-99.99,tws,2013-09-19 18:50:00,
2013-09-19 12:00:00,93.4,53.6,29.84,SE,135,4.6,6.9,25,-99.99,,,-99.99,tws,2013-09-19 19:00:00,
2013-09-19 12:10:00,93.4,53.4,29.84,SW,225,4.9,7.5,25,-99.99,,,-99.99,tws,2013-09-19 19:10:00,
2013-09-19 12:20:00,93.4,52.7,29.84,SE,135,6.0,8.4,24,-99.99,,,-99.99,tws,2013-09-19 19:20:00,
2013-09-19 12:30:00,93.3,52.3,29.84,South,180,3.8,6.6,24,-99.99,,,-99.99,tws,2013-09-19 19:30:00,
2013-09-19 12:40:00,93.2,52.2,29.83,West,270,4.0,6.2,24,-99.99,,,-99.99,tws,2013-09-19 19:40:00,
2013-09-19 13:00:00,93.6,51.8,29.83,East,90,4.2,7.4,23,-99.99,,,-99.99,tws,2013-09-19 20:00:00,
2013-09-19 13:10:00,94.2,52.3,29.82,SW,225,6.0,8.5,23,-99.99,,,-99.99,tws,2013-09-19 20:10:00,
2013-09-19 13:20:00,94.8,52.1,29.82,South,180,5.4,9.0,23,-99.99,,,-99.99,tws,2013-09-19 20:20:00,
2013-09-19 13:30:00,95.3,52.7,29.81,SSE,157,6.1,9.5,23,-99.99,,,-99.99,tws,2013-09-19 20:30:00,
2013-09-19 13:40:00,95.5,52.0,29.81,SE,135,4.6,8.4,22,-99.99,,,-99.99,tws,2013-09-19 20:40:00,
2013-09-19 13:50:00,95.6,51.9,29.80,SW,225,7.0,9.7,22,-99.99,,,-99.99,tws,2013-09-19 20:50:00,
2013-09-19 14:00:00,95.8,51.5,29.80,SE,135,5.5,7.2,21,-99.99,,,-99.99,tws,2013-09-19 21:00:00,
2013-09-19 14:10:00,96.0,52.1,29.80,SW,225,5.4,6.6,22,-99.99,,,-99.99,tws,2013-09-19 21:10:00,
2013-09-19 14:20:00,96.2,52.2,29.79,SE,135,5.6,9.0,22,-99.99,,,-99.99,tws,2013-09-19 21:20:00,
2013-09-19 14:30:00,96.3,52.4,29.80,North,360,7.3,12.6,22,-99.99,,,-99.99,tws,2013-09-19 21:30:00,
2013-09-19 14:40:00,96.3,52.3,29.80,SE,135,5.9,7.8,22,-99.99,,,-99.99,tws,2013-09-19 21:40:00,
2013-09-19 14:50:00,96.4,52.4,29.78,SE,135,6.9,11.1,22,-99.99,,,-99.99,tws,2013-09-19 21:50:00,
2013-09-19 15:00:00,96.5,52.2,29.77,SW,225,6.5,8.5,21,-99.99,,,-99.99,tws,2013-09-19 22:00:00,
2013-09-19 15:10:00,96.8,52.5,29.76,SW,225,5.5,10.2,21,-99.99,,,-99.99,tws,2013-09-19 22:10:00,
2013-09-19 15:20:00,97.0,52.1,29.77,West,270,7.4,9.7,21,-99.99,,,-99.99,tws,2013-09-19 22:20:00,
2013-09-19 15:30:00,97.0,52.1,29.76,SW,225,6.5,9.7,21,-99.99,,,-99.99,tws,2013-09-19 22:30:00,
2013-09-19 15:40:00,97.1,52.5,29.75,SSW,202,3.8,6.7,21,-99.99,,,-99.99,tws,2013-09-19 22:40:00,
2013-09-19 15:50:00,97.2,52.0,29.75,SSW,202,8.2,10.7,21,-99.99,,,-99.99,tws,2013-09-19 22:50:00,
2013-09-19 16:00:00,97.1,52.3,29.75,South,180,6.1,8.8,21,-99.99,,,-99.99,tws,2013-09-19 23:00:00,
2013-09-19 16:10:00,97.0,52.1,29.75,SSE,157,6.9,10.2,21,-99.99,,,-99.99,tws,2013-09-19 23:10:00,
2013-09-19 16:20:00,96.7,52.2,29.75,SW,225,6.9,9.4,21,-99.99,,,-99.99,tws,2013-09-19 23:20:00,
2013-09-19 16:30:00,96.4,51.5,29.76,SE,135,7.3,10.7,21,-99.99,,,-99.99,tws,2013-09-19 23:30:00,
2013-09-19 16:40:00,95.9,51.4,29.75,SSW,202,8.4,11.1,21,-99.99,,,-99.99,tws,2013-09-19 23:40:00,
2013-09-19 16:50:00,95.3,51.1,29.74,SW,225,7.0,10.1,21,-99.99,,,-99.99,tws,2013-09-19 23:50:00,
2013-09-19 17:00:00,94.9,50.9,29.74,SSW,202,6.8,9.1,22,-99.99,,,-99.99,tws,2013-09-20 00:00:00,
2013-09-19 17:10:00,94.5,50.2,29.74,South,180,7.7,9.6,21,-99.99,,,-99.99,tws,2013-09-20 00:10:00,
2013-09-19 17:20:00,94.0,49.9,29.75,South,180,8.1,9.8,21,-99.99,,,-99.99,tws,2013-09-20 00:20:00,
2013-09-19 17:30:00,93.7,49.7,29.75,SW,225,7.8,11.8,21,-99.99,,,-99.99,tws,2013-09-20 00:30:00,
2013-09-19 17:40:00,93.3,49.4,29.74,South,180,7.5,10.2,21,-99.99,,,-99.99,tws,2013-09-20 00:40:00,
2013-09-19 17:50:00,92.9,49.1,29.75,West,270,7.4,8.9,21,-99.99,,,-99.99,tws,2013-09-20 00:50:00,
2013-09-19 18:00:00,92.4,48.4,29.75,SE,135,7.7,8.7,21,-99.99,,,-99.99,tws,2013-09-20 01:00:00,
2013-09-19 18:10:00,92.1,48.2,29.74,SW,225,7.2,9.8,21,-99.99,,,-99.99,tws,2013-09-20 01:10:00,
2013-09-19 18:20:00,91.7,47.7,29.75,SW,225,6.4,8.4,21,-99.99,,,-99.99,tws,2013-09-20 01:20:00,
2013-09-19 18:30:00,91.3,47.4,29.75,SW,225,5.9,7.3,21,-99.99,,,-99.99,tws,2013-09-20 01:30:00,
2013-09-19 18:40:00,90.8,47.4,29.75,SW,225,5.5,6.2,21,-99.99,,,-99.99,tws,2013-09-20 01:40:00,
2013-09-19 18:50:00,90.4,47.1,29.75,SSW,202,5.1,6.9,22,-99.99,,,-99.99,tws,2013-09-20 01:50:00,
2013-09-19 19:00:00,90.0,46.7,29.76,South,180,4.2,6.1,21,-99.99,,,-99.99,tws,2013-09-20 02:00:00,
2013-09-19 19:10:00,89.5,46.4,29.76,SW,225,3.4,5.3,22,-99.99,,,-99.99,tws,2013-09-20 02:10:00,
2013-09-19 19:20:00,89.0,46.8,29.77,WSW,247,2.8,4.0,22,-99.99,,,-99.99,tws,2013-09-20 02:20:00,
2013-09-19 19:30:00,88.3,48.0,29.79,NNW,337,1.9,2.2,24,-99.99,,,-99.99,tws,2013-09-20 02:30:00,
2013-09-19 19:40:00,87.3,47.9,29.79,NW,315,2.2,2.8,25,-99.99,,,-99.99,tws,2013-09-20 02:40:00,
2013-09-19 19:50:00,86.4,47.6,29.80,NW,315,1.9,2.5,25,-99.99,,,-99.99,tws,2013-09-20 02:50:00,
2013-09-19 20:00:00,85.6,48.2,29.80,NW,315,3.1,4.7,26,-99.99,,,-99.99,tws,2013-09-20 03:00:00,
2013-09-19 20:10:00,85.0,47.8,29.80,NW,315,3.0,3.9,26,-99.99,,,-99.99,tws,2013-09-20 03:10:00,
2013-09-19 20:20:00,84.7,48.2,29.80,NW,315,2.7,3.2,27,-99.99,,,-99.99,tws,2013-09-20 03:20:00,
2013-09-19 20:30:00,84.3,47.7,29.80,NW,315,3.3,3.8,27,-99.99,,,-99.99,tws,2013-09-20 03:30:00,
2013-09-19 20:40:00,83.9,47.9,29.79,NW,315,3.1,4.0,28,-99.99,,,-99.99,tws,2013-09-20 03:40:00,
2013-09-19 20:50:00,83.5,47.8,29.80,NNW,337,3.9,4.8,28,-99.99,,,-99.99,tws,2013-09-20 03:50:00,
2013-09-19 21:00:00,83.2,47.3,29.80,NW,315,4.4,5.0,28,-99.99,,,-99.99,tws,2013-09-20 04:00:00,
2013-09-19 21:10:00,83.1,47.4,29.81,NW,315,4.4,5.0,28,-99.99,,,-99.99,tws,2013-09-20 04:10:00,
2013-09-19 21:30:00,82.8,48.1,29.82,NW,315,4.1,4.7,29,-99.99,,,-99.99,tws,2013-09-20 04:30:00,
2013-09-19 21:40:00,82.5,47.5,29.82,NW,315,4.7,5.4,28,-99.99,,,-99.99,tws,2013-09-20 04:40:00,
2013-09-19 21:50:00,82.3,47.6,29.83,NW,315,5.0,5.8,29,-99.99,,,-99.99,tws,2013-09-20 04:50:00,
2013-09-19 22:00:00,82.2,47.6,29.83,NW,315,5.1,6.1,29,-99.99,,,-99.99,tws,2013-09-20 05:00:00,
2013-09-19 22:10:00,82.2,46.9,29.83,WNW,292,4.3,4.8,28,-99.99,,,-99.99,tws,2013-09-20 05:10:00,
2013-09-19 22:20:00,82.0,46.9,29.83,NW,315,4.9,5.4,28,-99.99,,,-99.99,tws,2013-09-20 05:20:00,
2013-09-19 22:30:00,81.9,46.9,29.83,NW,315,4.7,5.5,28,-99.99,,,-99.99,tws,2013-09-20 05:30:00,
2013-09-19 22:40:00,81.8,46.3,29.84,West,270,4.3,4.8,28,-99.99,,,-99.99,tws,2013-09-20 05:40:00,
2013-09-19 22:50:00,81.6,46.5,29.83,NNW,337,3.5,4.2,28,-99.99,,,-99.99,tws,2013-09-20 05:50:00,
2013-09-19 23:00:00,81.4,46.1,29.85,NW,315,3.9,4.3,28,-99.99,,,-99.99,tws,2013-09-20 06:00:00,
2013-09-19 23:10:00,81.1,46.1,29.84,NW,315,3.6,4.5,28,-99.99,,,-99.99,tws,2013-09-20 06:10:00,
2013-09-19 23:20:00,80.8,46.6,29.84,NW,315,4.0,4.8,29,-99.99,,,-99.99,tws,2013-09-20 06:20:00,
2013-09-19 23:30:00,80.5,46.6,29.83,West,270,3.9,4.6,29,-99.99,,,-99.99,tws,2013-09-20 06:30:00,
2013-09-19 23:40:00,80.3,46.7,29.83,NW,315,3.5,4.3,30,-99.99,,,-99.99,tws,2013-09-20 06:40:00,
2013-09-19 23:50:00,80.0,45.8,29.82,NW,315,3.3,3.6,29,-99.99,,,-99.99,tws,2013-09-20 06:50:00,